Time;durP1;ratioP1;P1;durP2;ratioP2;P2;SDS_P1;SDS_P2;PMS_P1;PMS_P2;Temp;Humidity;BMP_temperature;BMP_pressure;BME280_temperature;BME280_humidity;BME280_pressure;Samples;Min_cycle;Max_cycle;Signal;HPM_P1;HPM_P2
2022/04/24 00:01:14;;;;;;;9.73;5.97;;;5.60;1.00;;;;;;5133353;27;20526;-84
2022/04/24 00:03:41;;;;;;;10.03;6.20;;;5.60;1.00;;;;;;5133567;27;20602;-84
2022/04/24 00:06:08;;;;;;;9.63;6.20;;;5.60;1.00;;;;;;5133689;27;20638;-83
2022/04/24 00:08:35;;;;;;;8.63;5.97;;;5.60;1.00;;;;;;5134104;27;20190;-83
2022/04/24 00:11:04;;;;;;;10.80;6.83;;;5.70;1.00;;;;;;5133864;27;20190;-83
2022/04/24 00:13:37;;;;;;;10.10;5.90;;;5.60;1.00;;;;;;5133733;27;20249;-83
2022/04/24 00:16:05;;;;;;;8.93;5.47;;;5.60;1.00;;;;;;5133366;27;20213;-84
2022/04/24 00:18:32;;;;;;;11.23;6.83;;;5.60;1.00;;;;;;5133567;27;20285;-83
2022/04/24 00:21:00;;;;;;;9.20;5.67;;;5.50;1.00;;;;;;5133334;27;20212;-84
2022/04/24 00:23:27;;;;;;;12.13;6.40;;;5.50;1.00;;;;;;5133111;27;20213;-83
2022/04/24 00:25:54;;;;;;;9.27;6.20;;;5.50;1.00;;;;;;5133506;27;20360;-84
2022/04/24 00:28:22;;;;;;;11.83;5.90;;;5.50;1.00;;;;;;5133296;27;20223;-83
2022/04/24 00:30:49;;;;;;;10.23;6.07;;;5.50;1.00;;;;;;5133335;27;20194;-84
2022/04/24 00:33:16;;;;;;;9.97;6.17;;;5.50;1.00;;;;;;5132580;27;20715;-83
2022/04/24 00:35:43;;;;;;;8.40;5.57;;;5.50;1.00;;;;;;5133419;27;20186;-84
2022/04/24 00:38:10;;;;;;;11.10;6.40;;;5.50;1.00;;;;;;5133428;27;20404;-85
2022/04/24 00:40:37;;;;;;;10.07;6.30;;;5.50;1.00;;;;;;5133703;27;20194;-84
2022/04/24 00:43:04;;;;;;;9.53;5.80;;;5.40;1.00;;;;;;5133267;27;20243;-84
2022/04/24 00:45:32;;;;;;;11.80;5.97;;;5.40;1.00;;;;;;5132852;27;20259;-84
2022/04/24 00:47:59;;;;;;;11.07;6.13;;;5.40;1.00;;;;;;5132939;27;20198;-84
2022/04/24 00:50:27;;;;;;;11.23;6.63;;;5.30;1.00;;;;;;5133217;27;20208;-83
2022/04/24 00:52:54;;;;;;;9.47;6.00;;;5.30;1.00;;;;;;5133127;28;20194;-83
2022/04/24 00:55:24;;;;;;;11.40;6.53;;;5.30;1.00;;;;;;5133039;27;20254;-85
2022/04/24 00:57:51;;;;;;;8.73;6.17;;;5.30;1.00;;;;;;5133135;27;20206;-83
2022/04/24 01:00:19;;;;;;;8.50;6.17;;;5.30;1.00;;;;;;5132936;27;20217;-85
2022/04/24 01:02:47;;;;;;;9.20;6.63;;;5.20;1.00;;;;;;5133137;27;20661;-84
2022/04/24 01:05:17;;;;;;;11.87;6.57;;;5.20;1.00;;;;;;5133085;27;20209;-84
2022/04/24 01:07:44;;;;;;;10.70;6.30;;;5.20;1.00;;;;;;5133189;27;20232;-83
2022/04/24 01:10:11;;;;;;;9.33;5.97;;;5.10;1.00;;;;;;5132716;27;20198;-83
2022/04/24 01:12:38;;;;;;;9.20;5.67;;;5.10;1.00;;;;;;5132932;27;20643;-84
2022/04/24 01:15:07;;;;;;;10.93;6.60;;;5.10;1.00;;;;;;5132829;27;20196;-83
2022/04/24 01:17:34;;;;;;;10.17;6.20;;;5.10;1.00;;;;;;5132973;27;20200;-83
2022/04/24 01:20:02;;;;;;;10.17;6.60;;;5.10;1.00;;;;;;5132952;27;20201;-83
2022/04/24 01:22:31;;;;;;;9.87;6.47;;;5.20;1.00;;;;;;5132437;27;20991;-84
2022/04/24 01:24:58;;;;;;;11.57;6.67;;;5.20;28.30;;;;;;5132567;28;20208;-83
2022/04/24 01:27:25;;;;;;;8.97;6.23;;;5.30;16.90;;;;;;5132912;27;20231;-85
2022/04/24 01:29:52;;;;;;;10.90;6.30;;;5.40;42.40;;;;;;5132489;27;20243;-85
2022/04/24 01:32:18;;;;;;;9.73;6.50;;;5.40;99.90;;;;;;5133008;27;20202;-83
2022/04/24 01:34:45;;;;;;;10.53;6.50;;;5.50;99.90;;;;;;5132572;27;20238;-83
2022/04/24 01:37:12;;;;;;;8.43;5.93;;;5.60;99.90;;;;;;5132735;27;20280;-85
2022/04/24 01:39:41;;;;;;;9.70;7.03;;;5.60;99.90;;;;;;5132862;27;20194;-83
2022/04/24 01:42:08;;;;;;;11.60;6.73;;;5.70;99.90;;;;;;5133030;27;20194;-85
2022/04/24 01:44:35;;;;;;;11.03;6.60;;;5.80;99.90;;;;;;5135197;27;20230;-84
2022/04/24 01:47:02;;;;;;;10.00;6.83;;;5.80;99.90;;;;;;5136555;27;20341;-83
2022/04/24 01:49:29;;;;;;;8.73;6.23;;;5.90;99.90;;;;;;5136225;27;20600;-85
2022/04/24 01:51:56;;;;;;;10.60;6.80;;;5.90;99.90;;;;;;5136238;27;20238;-83
2022/04/24 01:54:23;;;;;;;10.07;6.40;;;5.90;99.90;;;;;;5136277;27;20186;-85
2022/04/24 01:56:51;;;;;;;7.97;6.10;;;5.90;99.90;;;;;;5136715;27;20198;-83
2022/04/24 01:59:19;;;;;;;11.70;6.33;;;5.90;99.90;;;;;;5136420;27;20190;-84
2022/04/24 02:01:46;;;;;;;9.10;6.10;;;6.00;99.90;;;;;;5135788;27;20665;-84
2022/04/24 02:04:13;;;;;;;8.73;5.87;;;6.00;99.90;;;;;;5136305;27;20313;-85
2022/04/24 02:06:40;;;;;;;11.43;5.87;;;6.00;99.90;;;;;;5135853;27;20221;-85
2022/04/24 02:09:07;;;;;;;12.00;6.10;;;6.00;99.90;;;;;;5136608;27;20194;-86
2022/04/24 02:11:34;;;;;;;9.50;6.30;;;6.00;99.90;;;;;;5135872;27;20194;-83
2022/04/24 02:14:02;;;;;;;8.90;6.13;;;6.00;99.90;;;;;;5135893;27;20247;-84
2022/04/24 02:16:30;;;;;;;11.77;6.10;;;6.00;99.90;;;;;;5135349;27;20724;-85
2022/04/24 02:18:57;;;;;;;8.83;6.03;;;5.90;99.90;;;;;;5135781;27;20210;-83
2022/04/24 02:21:24;;;;;;;10.73;6.23;;;5.90;99.90;;;;;;5136098;27;20240;-85
2022/04/24 02:23:51;;;;;;;9.97;5.37;;;5.80;77.60;;;;;;5135746;27;20194;-84
2022/04/24 02:26:18;;;;;;;13.00;5.97;;;5.80;87.20;;;;;;5135825;27;20217;-84
2022/04/24 02:28:45;;;;;;;8.40;6.17;;;5.70;77.60;;;;;;5135725;27;20218;-85
2022/04/24 02:31:13;;;;;;;9.37;6.20;;;5.70;88.40;;;;;;5135596;27;20254;-83
2022/04/24 02:33:40;;;;;;;10.17;6.13;;;5.70;86.80;;;;;;5135967;27;20197;-85
2022/04/24 02:36:07;;;;;;;8.83;6.23;;;5.60;71.40;;;;;;5135625;27;20724;-85
2022/04/24 02:38:34;;;;;;;14.17;6.63;;;5.60;72.10;;;;;;5135610;27;20246;-83
2022/04/24 02:41:01;;;;;;;7.90;5.70;;;5.50;87.30;;;;;;5135325;27;20917;-83
2022/04/24 02:43:28;;;;;;;8.00;6.40;;;5.40;98.40;;;;;;5135216;27;20617;-84
2022/04/24 02:45:55;;;;;;;8.50;6.03;;;5.40;99.90;;;;;;5135177;27;20290;-84
2022/04/24 02:48:27;;;;;;;10.57;6.57;;;5.40;99.90;;;;;;5135154;27;20661;-85
2022/04/24 02:50:54;;;;;;;10.80;6.70;;;5.30;99.90;;;;;;5135184;27;20207;-84
2022/04/24 02:53:21;;;;;;;11.13;6.73;;;5.30;99.90;;;;;;5135481;27;20190;-84
2022/04/24 02:55:48;;;;;;;12.63;6.20;;;5.20;99.90;;;;;;5134841;27;20242;-85
2022/04/24 02:58:15;;;;;;;11.57;6.50;;;5.20;99.90;;;;;;5135268;27;20205;-83
2022/04/24 03:00:49;;;;;;;12.17;6.37;;;5.10;99.90;;;;;;5135555;27;20193;-84
2022/04/24 03:03:18;;;;;;;10.50;6.20;;;5.10;99.90;;;;;;5134894;27;20643;-83
2022/04/24 03:05:49;;;;;;;12.50;6.37;;;5.10;99.90;;;;;;5135035;27;20218;-85
2022/04/24 03:08:16;;;;;;;12.03;6.47;;;5.00;99.90;;;;;;5135123;27;20546;-83
2022/04/24 03:10:44;;;;;;;10.27;6.50;;;5.00;99.90;;;;;;5135220;27;20194;-82
2022/04/24 03:13:11;;;;;;;10.43;6.40;;;5.00;99.90;;;;;;5134981;27;20623;-85
2022/04/24 03:15:39;;;;;;;11.07;6.07;;;5.00;99.90;;;;;;5134510;27;20202;-85
2022/04/24 03:18:07;;;;;;;12.97;6.63;;;5.00;99.90;;;;;;5134900;27;20198;-83
2022/04/24 03:20:34;;;;;;;9.20;6.37;;;5.00;99.90;;;;;;5134846;27;20217;-85
2022/04/24 03:23:03;;;;;;;10.00;6.60;;;5.00;99.90;;;;;;5134382;27;20180;-84
2022/04/24 03:25:30;;;;;;;9.27;6.57;;;5.00;99.90;;;;;;5134825;27;20220;-84
2022/04/24 03:27:56;;;;;;;12.23;6.97;;;5.00;99.90;;;;;;5134394;27;20278;-85
2022/04/24 03:30:24;;;;;;;11.37;6.53;;;5.00;99.90;;;;;;5134889;27;20185;-83
2022/04/24 03:32:51;;;;;;;11.37;6.60;;;5.10;99.90;;;;;;5134756;27;20200;-84
2022/04/24 03:35:18;;;;;;;10.97;6.07;;;5.00;99.90;;;;;;5134354;27;20528;-84
2022/04/24 03:37:45;;;;;;;9.47;6.30;;;5.00;99.90;;;;;;5134762;27;20182;-83
2022/04/24 03:40:13;;;;;;;10.60;6.37;;;4.90;99.90;;;;;;5134716;27;20248;-84
2022/04/24 03:42:40;;;;;;;11.13;6.57;;;4.90;99.90;;;;;;5134321;27;20228;-85
2022/04/24 03:45:11;;;;;;;9.80;6.53;;;4.90;99.90;;;;;;5134367;27;20186;-83
2022/04/24 03:47:38;;;;;;;12.23;7.00;;;4.90;1.00;;;;;;5134264;27;20181;-84
2022/04/24 03:50:06;;;;;;;10.90;7.03;;;4.90;1.00;;;;;;5133966;27;20261;-85
2022/04/24 03:52:34;;;;;;;11.70;7.40;;;5.00;1.00;;;;;;5133870;27;20189;-84
2022/04/24 03:55:01;;;;;;;11.30;7.10;;;5.00;1.00;;;;;;5130443;27;20207;-83
2022/04/24 03:57:30;;;;;;;13.10;6.80;;;5.10;1.00;;;;;;5133766;27;20196;-84
2022/04/24 03:59:57;;;;;;;10.60;6.90;;;5.10;1.00;;;;;;5133802;27;20201;-84
2022/04/24 04:02:24;;;;;;;15.43;7.27;;;5.10;1.00;;;;;;5133853;27;20287;-84
2022/04/24 04:04:51;;;;;;;10.83;7.20;;;5.20;1.00;;;;;;5134104;27;20248;-83
2022/04/24 04:07:18;;;;;;;10.13;6.57;;;5.20;1.00;;;;;;5133105;27;20218;-85
2022/04/24 04:09:46;;;;;;;9.77;6.90;;;5.30;1.00;;;;;;5133780;27;20225;-84
2022/04/24 04:12:13;;;;;;;10.07;7.00;;;5.40;1.00;;;;;;5134100;27;20201;-84
2022/04/24 04:14:41;;;;;;;12.13;7.50;;;5.40;1.00;;;;;;5133521;27;20189;-84
2022/04/24 04:17:09;;;;;;;13.60;7.80;;;5.40;1.00;;;;;;5133621;27;20250;-84
2022/04/24 04:19:36;;;;;;;10.83;6.70;;;5.40;1.00;;;;;;5133837;27;20200;-85
2022/04/24 04:22:03;;;;;;;11.13;6.53;;;5.30;1.00;;;;;;5133744;27;20219;-86
2022/04/24 04:24:30;;;;;;;9.93;6.67;;;5.30;1.00;;;;;;5133671;27;20289;-86
2022/04/24 04:26:57;;;;;;;10.13;6.53;;;5.30;1.00;;;;;;5133183;27;20248;-83
2022/04/24 04:29:24;;;;;;;12.40;7.17;;;5.40;1.00;;;;;;5133529;27;20685;-87
2022/04/24 04:31:52;;;;;;;10.30;6.90;;;5.40;1.00;;;;;;5133574;27;20232;-83
2022/04/24 04:34:19;;;;;;;10.53;7.27;;;5.50;1.00;;;;;;5133187;27;20262;-83
2022/04/24 04:36:46;;;;;;;9.80;6.33;;;5.70;1.00;;;;;;5133711;27;20258;-84
2022/04/24 04:39:13;;;;;;;7.87;5.80;;;6.10;99.90;;;;;;5133151;27;20659;-84
2022/04/24 04:41:41;;;;;;;10.27;6.03;;;6.90;1.00;;;;;;5133328;27;20601;-85
2022/04/24 04:44:08;;;;;;;7.83;5.50;;;7.70;1.00;;;;;;5133103;27;20280;-86
2022/04/24 04:46:35;;;;;;;8.77;5.40;;;8.50;99.90;;;;;;5133223;27;20220;-85
2022/04/24 04:49:03;;;;;;;9.23;5.87;;;9.20;1.00;;;;;;5133433;27;20188;-85
2022/04/24 04:51:30;;;;;;;7.70;5.40;;;9.80;99.90;;;;;;5133294;27;20662;-86
2022/04/24 04:53:57;;;;;;;9.53;5.50;;;10.40;98.30;;;;;;5133320;27;20604;-85
2022/04/24 04:56:25;;;;;;;8.37;5.70;;;10.90;1.00;;;;;;5133407;27;20240;-84
2022/04/24 04:58:52;;;;;;;8.87;5.80;;;11.40;1.00;;;;;;5122981;27;20699;-85
2022/04/24 05:01:18;;;;;;;8.33;5.63;;;11.80;1.00;;;;;;5130745;28;20655;-86
2022/04/24 05:03:46;;;;;;;6.97;5.40;;;12.30;99.90;;;;;;5133013;28;20196;-85
2022/04/24 05:06:14;;;;;;;6.83;5.20;;;12.60;99.90;;;;;;5132693;27;20564;-86
2022/04/24 05:08:41;;;;;;;8.63;5.40;;;12.90;99.90;;;;;;5132849;28;20561;-85
2022/04/24 05:11:08;;;;;;;6.90;5.10;;;13.30;91.20;;;;;;5132990;28;20197;-85
2022/04/24 05:13:35;;;;;;;7.57;5.03;;;13.60;1.00;;;;;;5133177;27;20253;-85
2022/04/24 05:16:02;;;;;;;8.70;5.37;;;13.90;1.00;;;;;;5132751;27;20193;-86
2022/04/24 05:18:29;;;;;;;7.10;4.57;;;14.20;1.00;;;;;;5133388;27;20427;-84
2022/04/24 05:20:57;;;;;;;6.07;4.93;;;14.50;1.00;;;;;;5136736;27;20603;-86
2022/04/24 05:23:25;;;;;;;7.68;4.72;;;14.80;1.00;;;;;;5137134;27;20725;-86
2022/04/24 05:25:52;;;;;;;6.40;4.55;;;15.20;1.00;;;;;;5136798;27;20069;-86
2022/04/24 05:28:19;;;;;;;6.63;4.40;;;15.40;1.00;;;;;;5137042;27;20686;-86
2022/04/24 05:30:46;;;;;;;6.57;4.45;;;15.70;1.00;;;;;;5136668;27;20190;-85
2022/04/24 05:33:17;;;;;;;6.38;4.43;;;15.90;1.00;;;;;;5136388;27;20733;-85
2022/04/24 05:35:44;;;;;;;7.30;4.45;;;16.10;1.00;;;;;;5136904;27;20182;-85
2022/04/24 05:38:12;;;;;;;5.45;3.97;;;16.30;1.00;;;;;;5136605;27;20472;-85
2022/04/24 05:40:40;;;;;;;6.90;3.90;;;16.50;1.00;;;;;;5136409;27;20174;-86
2022/04/24 05:43:07;;;;;;;5.50;3.80;;;16.80;1.00;;;;;;5136135;27;20271;-85
2022/04/24 05:45:34;;;;;;;;;;;17.00;1.00;;;;;;5136623;27;20231;-85
2022/04/24 05:48:01;;;;;;;;;;;17.10;1.00;;;;;;5135016;27;19958;-86
2022/04/24 05:50:28;;;;;;;4.50;3.35;;;17.30;1.00;;;;;;5134301;27;20046;-84
2022/04/24 05:52:55;;;;;;;5.85;3.70;;;17.50;1.00;;;;;;5136237;27;20169;-85
2022/04/24 05:55:23;;;;;;;5.63;3.40;;;17.70;1.00;;;;;;5136370;27;20715;-84
2022/04/24 05:57:51;;;;;;;4.60;3.35;;;18.00;1.00;;;;;;5136518;27;20197;-84
2022/04/24 06:00:19;;;;;;;3.63;3.30;;;18.20;1.00;;;;;;5136576;27;20195;-84
2022/04/24 06:02:46;;;;;;;5.32;3.25;;;18.50;1.00;;;;;;5136475;27;20254;-84
2022/04/24 06:05:13;;;;;;;;;;;18.60;1.00;;;;;;5136704;27;20066;-85
2022/04/24 06:07:40;;;;;;;;;;;18.70;1.00;;;;;;5136317;27;20468;-86
2022/04/24 06:10:10;;;;;;;6.07;3.70;;;18.90;1.00;;;;;;5136474;27;19968;-83
2022/04/24 06:12:45;;;;;;;4.30;3.38;;;19.10;1.00;;;;;;5135395;27;20186;-84
2022/04/24 06:15:15;;;;;;;4.75;3.22;;;19.30;1.00;;;;;;5135973;27;20186;-83
2022/04/24 06:17:43;;;;;;;4.50;3.40;;;19.40;1.00;;;;;;5136170;27;20186;-87
2022/04/24 06:20:11;;;;;;;4.22;3.40;;;19.20;1.00;;;;;;5135643;27;20233;-87
2022/04/24 06:22:45;;;;;;;4.65;3.67;;;19.10;1.00;;;;;;5131992;27;20587;-86
2022/04/24 06:25:17;;;;;;;4.45;3.50;;;19.00;1.00;;;;;;5130675;27;20193;-84
2022/04/24 06:27:44;;;;;;;5.22;3.22;;;19.00;1.00;;;;;;5131639;27;20288;-86
2022/04/24 06:30:13;;;;;;;4.40;3.30;;;19.00;1.00;;;;;;5134903;27;20174;-85
2022/04/24 06:32:41;;;;;;;5.18;3.10;;;19.10;1.00;;;;;;5135480;27;20186;-85
2022/04/24 06:35:10;;;;;;;5.10;3.60;;;19.30;1.00;;;;;;5135695;27;20190;-86
2022/04/24 06:37:37;;;;;;;5.40;3.38;;;19.40;1.00;;;;;;5135544;27;20273;-86
2022/04/24 06:40:05;;;;;;;4.05;3.42;;;19.40;1.00;;;;;;5135660;27;20266;-86
2022/04/24 06:42:32;;;;;;;4.88;2.92;;;19.50;1.00;;;;;;5135207;27;20190;-86
2022/04/24 06:45:00;;;;;;;3.97;3.30;;;19.90;1.00;;;;;;5134349;27;20587;-85
2022/04/24 06:47:28;;;;;;;7.68;2.88;;;20.20;1.00;;;;;;5135594;27;20214;-85
2022/04/24 06:49:55;;;;;;;3.58;2.70;;;20.30;1.00;;;;;;5135755;27;20243;-85
2022/04/24 06:52:22;;;;;;;5.22;3.53;;;20.40;1.00;;;;;;5135134;27;20615;-87
2022/04/24 06:54:49;;;;;;;5.53;3.45;;;20.20;1.00;;;;;;5134897;27;20194;-86
2022/04/24 06:57:16;;;;;;;4.63;3.50;;;20.30;1.00;;;;;;5135110;27;20243;-86
2022/04/24 06:59:43;;;;;;;5.65;3.30;;;20.60;1.00;;;;;;5134704;27;20247;-86
2022/04/24 07:02:10;;;;;;;5.00;3.45;;;20.80;1.00;;;;;;5134829;27;20183;-85
2022/04/24 07:04:39;;;;;;;6.38;3.13;;;21.10;1.00;;;;;;5134732;27;20190;-85
2022/04/24 07:07:06;;;;;;;4.10;3.05;;;21.20;1.00;;;;;;5132002;27;20206;-85
2022/04/24 07:09:33;;;;;;;5.47;3.50;;;21.50;1.00;;;;;;5134970;27;20235;-86
2022/04/24 07:12:00;;;;;;;3.80;3.20;;;21.70;1.00;;;;;;5134850;27;20228;-84
2022/04/24 07:14:27;;;;;;;4.88;3.35;;;21.90;1.00;;;;;;5135326;27;20189;-85
2022/04/24 07:16:54;;;;;;;3.85;2.85;;;22.40;1.00;;;;;;5134292;27;20198;-84
2022/04/24 07:19:21;;;;;;;5.65;3.35;;;22.70;1.00;;;;;;5132512;27;20245;-86
2022/04/24 07:21:50;;;;;;;5.20;3.35;;;23.00;1.00;;;;;;5120715;27;20217;-86
2022/04/24 07:24:17;;;;;;;3.30;2.80;;;23.00;1.00;;;;;;5126128;27;20600;-85
2022/04/24 07:26:44;;;;;;;4.03;3.20;;;23.10;1.00;;;;;;5134555;27;20215;-86
2022/04/24 07:29:11;;;;;;;5.17;3.10;;;23.10;1.00;;;;;;5134370;27;20214;-86
2022/04/24 07:31:38;;;;;;;5.07;3.22;;;23.00;1.00;;;;;;5134603;27;20585;-84
2022/04/24 07:34:05;;;;;;;4.25;3.33;;;23.10;1.00;;;;;;5132865;27;20190;-86
2022/04/24 07:36:32;;;;;;;5.68;3.20;;;23.40;1.00;;;;;;5133171;27;20239;-85
2022/04/24 07:39:01;;;;;;;4.32;3.22;;;23.60;1.00;;;;;;5134342;27;20573;-86
2022/04/24 07:41:28;;;;;;;5.63;3.00;;;23.60;1.00;;;;;;5132502;27;20189;-85
2022/04/24 07:43:55;;;;;;;5.30;3.20;;;23.60;1.00;;;;;;5134327;27;20643;-86
2022/04/24 07:46:23;;;;;;;4.80;3.30;;;23.70;1.00;;;;;;5133705;27;20659;-86
2022/04/24 07:48:50;;;;;;;5.32;3.60;;;23.90;1.00;;;;;;5134049;27;20686;-85
2022/04/24 07:51:17;;;;;;;5.05;3.00;;;23.80;1.00;;;;;;5134262;27;20611;-85
2022/04/24 07:53:44;;;;;;;5.25;2.60;;;23.80;1.00;;;;;;5134182;27;20243;-84
2022/04/24 07:56:12;;;;;;;5.30;3.38;;;23.80;1.00;;;;;;5131657;27;20178;-83
2022/04/24 07:58:39;;;;;;;4.30;3.15;;;24.10;1.00;;;;;;5131009;27;20771;-85
2022/04/24 08:01:06;;;;;;;4.43;3.03;;;24.30;1.00;;;;;;5117337;27;20879;-86
2022/04/24 08:03:34;;;;;;;3.78;2.72;;;24.00;1.00;;;;;;5113441;28;20197;-85
2022/04/24 08:06:01;;;;;;;7.93;3.30;;;24.10;1.00;;;;;;5113277;28;20720;-86
2022/04/24 08:08:28;;;;;;;3.83;2.90;;;24.00;1.00;;;;;;5113343;28;20218;-85
2022/04/24 08:10:57;;;;;;;4.70;3.63;;;24.10;1.00;;;;;;5113690;27;20187;-86
2022/04/24 08:13:27;;;;;;;4.32;2.90;;;23.80;1.00;;;;;;5114055;27;20194;-84
2022/04/24 08:15:56;;;;;;;5.43;2.83;;;23.80;1.00;;;;;;5133774;27;20186;-84
2022/04/24 08:18:23;;;;;;;5.80;3.35;;;23.70;1.00;;;;;;5133656;27;20621;-85
2022/04/24 08:20:50;;;;;;;5.53;3.08;;;23.80;1.00;;;;;;5132888;27;20193;-85
2022/04/24 08:23:17;;;;;;;4.53;2.72;;;23.90;1.00;;;;;;5125063;27;20263;-83
2022/04/24 08:25:45;;;;;;;2.85;2.50;;;24.00;1.00;;;;;;5116941;27;20203;-86
2022/04/24 08:28:13;;;;;;;3.40;2.20;;;24.20;1.00;;;;;;5132281;27;20635;-84
2022/04/24 08:30:44;;;;;;;2.97;2.40;;;24.10;1.00;;;;;;5132830;27;20604;-84
2022/04/24 08:33:12;;;;;;;3.75;2.10;;;24.30;1.00;;;;;;5133299;27;20182;-85
2022/04/24 08:35:39;;;;;;;4.90;2.70;;;24.40;1.00;;;;;;5133229;27;20536;-84
2022/04/24 08:38:07;;;;;;;2.75;2.20;;;24.40;1.00;;;;;;5133230;27;20661;-84
2022/04/24 08:40:34;;;;;;;4.25;2.45;;;24.30;1.00;;;;;;5133155;27;20581;-83
2022/04/24 08:43:01;;;;;;;2.67;2.20;;;24.10;1.00;;;;;;5133322;27;20190;-84
2022/04/24 08:45:30;;;;;;;4.15;1.95;;;23.90;1.00;;;;;;5123676;27;20187;-83
2022/04/24 08:48:00;;;;;;;2.85;1.90;;;23.80;1.00;;;;;;5127105;27;20279;-84
2022/04/24 08:50:29;;;;;;;3.97;2.03;;;23.80;1.00;;;;;;5113425;28;20201;-84
2022/04/24 08:52:57;;;;;;;4.65;2.10;;;23.60;1.00;;;;;;5131326;27;20186;-84
2022/04/24 08:55:27;;;;;;;3.20;1.90;;;23.50;1.00;;;;;;5133132;28;20222;-83
2022/04/24 08:57:54;;;;;;;2.55;1.88;;;23.70;1.00;;;;;;5132989;28;20215;-83
2022/04/24 09:00:21;;;;;;;3.92;2.15;;;23.70;1.00;;;;;;5132705;27;20642;-84
2022/04/24 09:02:48;;;;;;;3.38;2.28;;;23.80;1.00;;;;;;5133090;27;20191;-85
2022/04/24 09:05:17;;;;;;;3.28;2.10;;;23.90;1.00;;;;;;5132832;27;20239;-85
2022/04/24 09:07:45;;;;;;;3.50;2.00;;;23.80;1.00;;;;;;5133197;27;20266;-83
2022/04/24 09:10:13;;;;;;;2.67;2.00;;;23.80;1.00;;;;;;5132255;27;20577;-84
2022/04/24 09:12:40;;;;;;;3.45;2.10;;;23.80;1.00;;;;;;5132799;27;20186;-84
2022/04/24 09:15:08;;;;;;;2.20;2.00;;;23.80;1.00;;;;;;5133148;27;20289;-84
2022/04/24 09:17:36;;;;;;;2.85;1.90;;;23.80;1.00;;;;;;5132929;27;20281;-84
2022/04/24 09:20:18;;;;;;;5.90;2.30;;;23.70;1.00;;;;;;5130298;28;20197;-85
2022/04/24 09:22:45;;;;;;;3.65;2.10;;;23.90;1.00;;;;;;5130698;27;20251;-85
2022/04/24 09:25:13;;;;;;;2.22;2.03;;;23.80;1.00;;;;;;5131472;28;20190;-83
2022/04/24 09:27:41;;;;;;;3.60;1.92;;;23.60;1.00;;;;;;5132397;27;20209;-85
2022/04/24 09:30:11;;;;;;;2.58;2.15;;;23.60;1.00;;;;;;5132909;27;20175;-83
2022/04/24 09:32:47;;;;;;;3.55;2.40;;;23.50;1.00;;;;;;5132932;28;20187;-83
2022/04/24 09:35:25;;;;;;;3.78;2.25;;;23.10;1.00;;;;;;5132680;27;20175;-85
2022/04/24 09:37:53;;;;;;;2.65;2.20;;;22.70;1.00;;;;;;5132559;27;20167;-85
2022/04/24 09:40:20;;;;;;;2.85;2.15;;;22.40;1.00;;;;;;5132839;27;20235;-83
2022/04/24 09:42:54;;;;;;;4.10;2.20;;;22.00;1.00;;;;;;5132550;27;20240;-85
2022/04/24 09:45:25;;;;;;;2.63;2.35;;;21.70;1.00;;;;;;5132749;27;20229;-84
2022/04/24 09:47:59;;;;;;;3.30;2.20;;;21.50;1.00;;;;;;5132747;27;20274;-83
2022/04/24 09:50:30;;;;;;;3.67;2.33;;;21.30;1.00;;;;;;5132863;27;20182;-83
2022/04/24 09:52:59;;;;;;;3.85;2.05;;;20.90;1.00;;;;;;5132363;27;20623;-83
2022/04/24 09:55:26;;;;;;;4.03;2.30;;;20.50;1.00;;;;;;5132621;27;20233;-83
2022/04/24 09:57:55;;;;;;;2.25;2.05;;;20.50;1.00;;;;;;5132678;27;20251;-84
2022/04/24 10:00:22;;;;;;;5.00;2.58;;;20.30;1.00;;;;;;5132298;28;20286;-84
2022/04/24 10:02:51;;;;;;;5.30;2.30;;;20.30;1.00;;;;;;5132679;27;20231;-84
2022/04/24 10:05:18;;;;;;;4.68;2.30;;;20.00;1.00;;;;;;5132499;27;20706;-84
2022/04/24 10:07:47;;;;;;;3.47;2.47;;;19.80;1.00;;;;;;5135924;27;20293;-84
2022/04/24 10:10:16;;;;;;;3.08;2.40;;;19.80;1.00;;;;;;5136203;27;20193;-84
2022/04/24 10:12:48;;;;;;;2.85;2.33;;;19.90;1.00;;;;;;5135869;27;20655;-84
2022/04/24 10:15:18;;;;;;;3.17;2.38;;;20.10;1.00;;;;;;5136050;27;20243;-85
2022/04/24 10:18:03;;;;;;;5.55;2.80;;;20.00;1.00;;;;;;5132896;27;20197;-86
2022/04/24 10:20:59;;;;;;;3.03;2.75;;;19.70;1.00;;;;;;5135553;27;20265;-87
2022/04/24 10:23:34;;;;;;;4.03;2.45;;;19.60;1.00;;;;;;5133811;27;20174;-86
2022/04/24 10:26:03;;;;;;;3.67;2.60;;;19.40;1.00;;;;;;5132706;27;20178;-86
2022/04/24 10:28:39;;;;;;;5.60;2.70;;;19.40;1.00;;;;;;5135299;27;20339;-86
2022/04/24 10:31:09;;;;;;;3.38;2.70;;;19.30;1.00;;;;;;5135758;27;20178;-84
2022/04/24 10:33:39;;;;;;;3.20;2.45;;;19.30;1.00;;;;;;5135723;27;20183;-85
2022/04/24 10:36:14;;;;;;;2.97;2.53;;;19.40;1.00;;;;;;5135876;27;20273;-85
2022/04/24 10:38:51;;;;;;;3.10;2.70;;;19.40;1.00;;;;;;5135478;27;20197;-86
2022/04/24 10:41:19;;;;;;;3.30;2.78;;;19.50;1.00;;;;;;5135525;27;20521;-84
2022/04/24 10:43:48;;;;;;;2.72;2.50;;;19.60;1.00;;;;;;5135425;27;20646;-87
2022/04/24 10:46:26;;;;;;;4.70;2.90;;;19.90;1.00;;;;;;5135288;27;20591;-85
2022/04/24 10:48:54;;;;;;;5.18;2.83;;;20.20;1.00;;;;;;5135239;27;20566;-85
2022/04/24 10:51:29;;;;;;;4.93;2.95;;;20.20;1.00;;;;;;5135195;27;20186;-88
2022/04/24 10:54:01;;;;;;;3.63;2.80;;;20.20;1.00;;;;;;5135407;27;20239;-85
2022/04/24 10:56:29;;;;;;;3.92;3.03;;;20.20;1.00;;;;;;5134813;27;20575;-84
2022/04/24 10:59:07;;;;;;;3.35;2.85;;;20.10;1.00;;;;;;5135343;27;20197;-85
2022/04/24 11:01:35;;;;;;;4.45;2.95;;;19.90;1.00;;;;;;5135312;27;20185;-86
2022/04/24 11:04:07;;;;;;;3.15;2.85;;;19.60;1.00;;;;;;5134938;27;20194;-86
2022/04/24 11:06:34;;;;;;;4.05;2.58;;;19.30;1.00;;;;;;5134968;27;20646;-85
2022/04/24 11:09:10;;;;;;;3.95;2.67;;;19.10;1.00;;;;;;5135250;27;20258;-86
2022/04/24 11:11:46;;;;;;;3.10;2.80;;;18.90;1.00;;;;;;5135055;27;20229;-85
2022/04/24 11:14:13;;;;;;;3.75;2.72;;;18.70;1.00;;;;;;5135064;27;20182;-87
2022/04/24 11:16:48;;;;;;;4.20;2.92;;;18.60;1.00;;;;;;5134437;27;20198;-84
2022/04/24 11:19:21;;;;;;;3.35;2.90;;;18.60;1.00;;;;;;5134878;27;20186;-85
2022/04/24 11:21:48;;;;;;;3.65;2.97;;;18.50;1.00;;;;;;5134882;27;20179;-84
2022/04/24 11:24:20;;;;;;;6.47;2.80;;;18.50;1.00;;;;;;5135016;27;20201;-85
2022/04/24 11:26:48;;;;;;;3.30;3.00;;;18.40;1.00;;;;;;5134576;27;20178;-84
2022/04/24 11:29:15;;;;;;;3.45;3.15;;;18.40;1.00;;;;;;5134062;27;20230;-84
2022/04/24 11:31:48;;;;;;;5.82;3.00;;;18.30;1.00;;;;;;5134177;27;20707;-86
2022/04/24 11:34:18;;;;;;;4.60;3.10;;;18.20;1.00;;;;;;5134284;27;20179;-86
2022/04/24 11:36:45;;;;;;;4.53;3.65;;;18.10;1.00;;;;;;5134502;27;20278;-84
2022/04/24 11:39:12;;;;;;;4.00;3.50;;;18.20;1.00;;;;;;5134618;27;20246;-85
2022/04/24 11:41:43;;;;;;;4.25;3.65;;;18.40;1.00;;;;;;5134691;27;20186;-85
2022/04/24 11:52:21;;;;;;;4.05;3.40;;;18.90;1.00;;;;;;5134239;27;20177;-86
2022/04/24 11:54:51;;;;;;;4.40;3.42;;;18.90;1.00;;;;;;5133685;27;20611;-82
2022/04/24 11:57:20;;;;;;;4.18;3.65;;;19.10;1.00;;;;;;5134008;27;20247;-84
2022/04/24 11:59:54;;;;;;;4.18;3.70;;;19.20;1.00;;;;;;5134094;27;20222;-83
2022/04/24 12:02:25;;;;;;;6.35;3.38;;;19.10;1.00;;;;;;5134113;27;20253;-83
2022/04/24 12:04:53;;;;;;;5.25;3.58;;;19.20;1.00;;;;;;5133896;27;20270;-82
2022/04/24 12:07:21;;;;;;;3.90;3.60;;;19.20;1.00;;;;;;5133727;27;20197;-82
2022/04/24 12:09:58;;;;;;;4.85;4.18;;;19.30;1.00;;;;;;5133837;27;20299;-83
2022/04/24 12:12:27;;;;;;;4.90;4.18;;;19.10;1.00;;;;;;5113415;28;20265;-83
2022/04/24 12:14:54;;;;;;;6.70;4.03;;;18.80;1.00;;;;;;5130343;27;20187;-84
2022/04/24 12:17:22;;;;;;;4.22;3.83;;;18.50;1.00;;;;;;5133843;27;20191;-83
2022/04/24 12:19:54;;;;;;;4.25;3.80;;;18.30;1.00;;;;;;5133660;27;20197;-85
2022/04/24 12:22:29;;;;;;;4.70;3.50;;;18.20;1.00;;;;;;5133551;27;20650;-82
2022/04/24 12:25:08;;;;;;;4.38;3.92;;;18.00;1.00;;;;;;5133614;27;20242;-83
2022/04/24 12:27:37;;;;;;;4.75;4.25;;;18.00;1.00;;;;;;5130381;27;20618;-83
2022/04/24 12:30:05;;;;;;;4.13;3.63;;;18.00;1.00;;;;;;5133010;27;20262;-83
2022/04/24 12:32:34;;;;;;;4.82;4.18;;;17.90;1.00;;;;;;5132087;27;20198;-85
2022/04/24 12:35:01;;;;;;;5.07;4.07;;;17.80;1.00;;;;;;5133564;27;20205;-83
2022/04/24 12:37:30;;;;;;;3.90;3.33;;;17.60;1.00;;;;;;5133414;27;20266;-83
2022/04/24 12:39:58;;;;;;;4.88;3.92;;;17.60;1.00;;;;;;5133295;27;20198;-85
2022/04/24 12:42:25;;;;;;;4.65;3.97;;;17.60;1.00;;;;;;5132929;27;20621;-83
2022/04/24 12:44:55;;;;;;;5.07;3.97;;;17.50;1.00;;;;;;5132603;27;20193;-83
2022/04/24 12:47:22;;;;;;;6.65;4.07;;;17.70;1.00;;;;;;5133262;27;20203;-85
2022/04/24 12:49:50;;;;;;;4.97;4.07;;;17.80;1.00;;;;;;5133055;27;20234;-84
2022/04/24 12:52:21;;;;;;;4.03;3.63;;;18.00;1.00;;;;;;5132921;27;20195;-84
2022/04/24 12:54:48;;;;;;;4.35;3.90;;;18.10;1.00;;;;;;5132918;27;20183;-83
2022/04/24 12:57:16;;;;;;;5.50;4.53;;;18.00;1.00;;;;;;5133225;27;20199;-83
2022/04/24 12:59:43;;;;;;;5.72;4.53;;;18.00;1.00;;;;;;5132698;27;20190;-85
2022/04/24 13:02:13;;;;;;;4.88;4.15;;;17.90;1.00;;;;;;5133476;28;20246;-85
2022/04/24 13:04:40;;;;;;;5.38;4.50;;;17.90;1.00;;;;;;5133196;28;20182;-87
2022/04/24 13:07:10;;;;;;;5.07;4.57;;;17.90;1.00;;;;;;5132869;27;20193;-87
2022/04/24 13:09:38;;;;;;;5.00;4.50;;;17.90;1.00;;;;;;5133219;27;20222;-86
2022/04/24 13:12:10;;;;;;;6.95;4.82;;;17.90;1.00;;;;;;5126954;27;20522;-82